Time;durP1;ratioP1;P1;durP2;ratioP2;P2;SDS_P1;SDS_P2;PMS_P1;PMS_P2;Temp;Humidity;BMP_temperature;BMP_pressure;BME280_temperature;BME280_humidity;BME280_pressure;Samples;Min_cycle;Max_cycle;Signal;HPM_P1;HPM_P2
2022/07/02 00:01:17;;;;;;;3.45;2.30;;;;;;;25.72;53.07;100754.72;5071718;28;20045;-82
2022/07/02 00:03:51;;;;;;;3.65;2.42;;;;;;;25.76;53.15;100763.22;5071961;28;20048;-82
2022/07/02 00:06:21;;;;;;;2.47;2.28;;;;;;;25.85;52.54;100755.31;5071557;28;20052;-82
2022/07/02 00:08:51;;;;;;;7.15;2.47;;;;;;;25.57;53.64;100762.13;5071499;28;20048;-82
2022/07/02 00:11:20;;;;;;;7.25;2.67;;;;;;;25.74;53.15;100759.97;5071706;28;20417;-82
2022/07/02 00:13:52;;;;;;;2.45;2.13;;;;;;;26.24;52.00;100756.97;5070063;28;20486;-82
2022/07/02 00:16:20;;;;;;;2.28;2.08;;;;;;;26.23;51.84;100754.56;5071433;28;20077;-82
2022/07/02 00:18:49;;;;;;;2.78;1.95;;;;;;;26.30;51.42;100772.28;5071209;28;20048;-82
2022/07/02 00:21:18;;;;;;;2.40;2.20;;;;;;;26.30;51.50;100760.25;5071348;28;20368;-82
2022/07/02 00:23:46;;;;;;;6.63;2.40;;;;;;;26.19;51.64;100756.50;5071332;28;20059;-82
2022/07/02 00:26:30;;;;;;;2.70;2.50;;;;;;;26.10;51.75;100762.41;5071315;28;20040;-82
2022/07/02 00:29:16;;;;;;;2.60;2.40;;;;;;;26.10;51.84;100774.41;5071368;28;20033;-82
2022/07/02 00:31:47;;;;;;;5.10;2.60;;;;;;;26.02;51.87;100761.50;5071094;28;20053;-82
2022/07/02 00:34:17;;;;;;;4.57;2.30;;;;;;;26.01;51.90;100769.09;5071253;28;20614;-82
2022/07/02 00:36:45;;;;;;;3.45;2.03;;;;;;;25.85;51.74;100762.94;5071109;28;20578;-82
2022/07/02 00:39:13;;;;;;;3.42;2.38;;;;;;;25.91;51.40;100767.00;5071035;28;20052;-82
2022/07/02 00:41:43;;;;;;;2.38;2.13;;;;;;;25.99;50.99;100765.06;5071134;28;20052;-82
2022/07/02 00:44:12;;;;;;;4.25;2.75;;;;;;;25.96;50.93;100775.03;5071146;28;20041;-82
2022/07/02 00:46:42;;;;;;;3.15;2.22;;;;;;;26.06;50.83;100776.41;5071189;28;20051;-82
2022/07/02 00:49:17;;;;;;;5.45;2.42;;;;;;;25.99;50.83;100785.50;5069984;28;20040;-82
2022/07/02 00:51:45;;;;;;;3.78;2.65;;;;;;;25.88;50.48;100779.78;5081418;28;20368;-82
2022/07/02 00:54:13;;;;;;;3.03;2.10;;;;;;;25.97;50.89;100771.06;5092312;28;20471;-82
2022/07/02 00:56:41;;;;;;;5.28;1.95;;;;;;;26.06;50.73;100784.81;5095344;28;20052;-82
2022/07/02 00:59:09;;;;;;;2.35;1.98;;;;;;;26.13;49.64;100779.28;5093948;28;20055;-82
2022/07/02 01:01:37;;;;;;;2.40;2.08;;;;;;;25.97;50.45;100787.09;5095347;28;20040;-82
2022/07/02 01:04:06;;;;;;;3.00;2.58;;;;;;;25.93;50.51;100789.03;5094177;28;20040;-82
2022/07/02 01:06:37;;;;;;;2.95;2.20;;;;;;;25.81;50.63;100798.50;5082551;28;20051;-82
2022/07/02 01:11:54;;;;;;;6.60;2.60;;;;;;;25.83;50.72;100798.91;5070704;28;20059;-82
2022/07/02 01:14:24;;;;;;;2.47;2.15;;;;;;;25.75;51.18;100815.63;5093251;28;20394;-82
2022/07/02 01:16:52;;;;;;;2.35;1.95;;;;;;;25.59;51.44;100807.41;5095015;28;20055;-82
2022/07/02 01:19:23;;;;;;;3.25;2.10;;;;;;;25.52;51.79;100817.69;5094930;28;20047;-82
2022/07/02 01:22:17;;;;;;;2.70;2.28;;;;;;;25.61;51.72;100809.84;5095010;28;20032;-82
2022/07/02 01:24:53;;;;;;;2.53;2.08;;;;;;;25.54;52.03;100813.34;5093309;28;20402;-82
2022/07/02 01:27:23;;;;;;;2.65;2.40;;;;;;;25.42;51.90;100808.72;5083281;28;20067;-82
2022/07/02 01:29:51;;;;;;;2.15;1.90;;;;;;;25.40;51.96;100815.91;5078233;28;20033;-82
2022/07/02 01:32:19;;;;;;;2.53;2.25;;;;;;;25.53;51.51;100810.88;5094769;28;20052;-82
2022/07/02 01:34:50;;;;;;;2.10;1.90;;;;;;;25.49;51.39;100808.84;5094842;28;20044;-82
2022/07/02 01:37:20;;;;;;;3.05;1.90;;;;;;;25.46;51.91;100820.00;5094694;28;20494;-82
2022/07/02 01:39:49;;;;;;;2.30;1.83;;;;;;;25.42;51.53;100811.53;5094572;28;20047;-82
2022/07/02 01:42:17;;;;;;;3.25;2.53;;;;;;;25.38;52.16;100818.25;5094667;28;20055;-82
2022/07/02 01:44:46;;;;;;;3.90;2.15;;;;;;;25.39;52.70;100831.91;5094606;28;20040;-82
2022/07/02 01:47:14;;;;;;;4.00;2.17;;;;;;;25.37;52.90;100831.47;5094401;28;20067;-82
2022/07/02 01:49:42;;;;;;;2.35;2.05;;;;;;;25.32;53.69;100826.97;5087096;28;20041;-82
2022/07/02 01:52:10;;;;;;;3.90;2.50;;;;;;;25.29;53.12;100835.34;5087889;28;20051;-82
2022/07/02 01:54:38;;;;;;;3.63;2.20;;;;;;;25.28;53.28;100830.91;5094219;28;20047;-82
2022/07/02 01:57:07;;;;;;;3.58;2.25;;;;;;;25.26;52.80;100830.50;5094347;28;20109;-82
2022/07/02 01:59:35;;;;;;;3.15;2.40;;;;;;;25.26;52.56;100836.09;5093939;28;20482;-82
2022/07/02 02:02:04;;;;;;;5.20;2.25;;;;;;;25.23;52.65;100832.84;5094249;28;20044;-82
2022/07/02 02:04:32;;;;;;;4.22;2.38;;;;;;;25.22;53.35;100836.84;5093591;28;20044;-81
2022/07/02 02:07:00;;;;;;;2.72;2.30;;;;;;;25.15;53.27;100833.91;5094181;28;20047;-82
2022/07/02 02:09:29;;;;;;;4.43;2.42;;;;;;;25.23;53.06;100835.66;5093952;28;20071;-82
2022/07/02 02:11:58;;;;;;;5.20;2.40;;;;;;;25.30;53.41;100840.56;5094283;28;20418;-82
2022/07/02 02:14:28;;;;;;;4.00;2.65;;;;;;;25.19;53.87;100833.97;5093970;28;20486;-82
2022/07/02 02:16:56;;;;;;;6.32;2.10;;;;;;;25.23;53.31;100844.03;5093840;28;20110;-82
2022/07/02 02:19:24;;;;;;;3.45;2.28;;;;;;;25.25;53.82;100828.84;5092022;28;20044;-82
2022/07/02 02:21:52;;;;;;;2.97;2.47;;;;;;;25.22;52.92;100825.63;5059497;28;20487;-82
2022/07/02 02:24:20;;;;;;;2.42;2.20;;;;;;;25.21;53.10;100838.03;5073553;28;20043;-82
2022/07/02 02:26:48;;;;;;;4.93;2.60;;;;;;;25.20;53.11;100842.00;5073307;28;20486;-82
2022/07/02 02:29:16;;;;;;;4.00;2.35;;;;;;;25.30;52.84;100842.53;5082814;28;20048;-82
2022/07/02 02:31:44;;;;;;;2.58;2.33;;;;;;;25.36;52.71;100849.44;5075665;28;20043;-82
2022/07/02 02:34:13;;;;;;;4.20;2.28;;;;;;;25.12;53.21;100839.47;5073276;28;20507;-82
2022/07/02 02:36:40;;;;;;;2.95;2.35;;;;;;;25.16;53.00;100840.34;5073067;28;20049;-82
2022/07/02 02:39:08;;;;;;;4.40;2.28;;;;;;;25.22;53.11;100850.84;5073146;28;20036;-82
2022/07/02 02:41:37;;;;;;;2.70;2.42;;;;;;;25.15;53.12;100850.72;5073156;28;20061;-82
2022/07/02 02:44:05;;;;;;;3.55;2.55;;;;;;;25.03;53.02;100837.72;5073007;28;20056;-82
2022/07/02 02:46:33;;;;;;;3.03;2.20;;;;;;;25.07;53.22;100854.59;5073092;28;20060;-81
2022/07/02 02:49:01;;;;;;;2.92;2.28;;;;;;;24.97;53.14;100844.81;5071353;28;20048;-82
2022/07/02 02:51:29;;;;;;;2.25;2.15;;;;;;;25.11;52.49;100852.66;5080866;28;20568;-82
2022/07/02 02:53:57;;;;;;;2.30;2.08;;;;;;;25.09;52.12;100852.22;5091251;28;20404;-82
2022/07/02 02:56:25;;;;;;;2.33;2.13;;;;;;;25.11;52.25;100852.66;5092853;28;20040;-80
2022/07/02 02:58:53;;;;;;;2.47;2.22;;;;;;;25.20;52.77;100861.63;5091631;28;21031;-81
2022/07/02 03:01:21;;;;;;;2.88;2.20;;;;;;;25.20;52.17;100850.41;5092908;28;20048;-82
2022/07/02 03:03:49;;;;;;;3.15;1.95;;;;;;;25.18;51.94;100843.56;5091862;28;20048;-82
2022/07/02 03:06:17;;;;;;;2.97;2.15;;;;;;;25.08;52.25;100857.00;5092966;28;20047;-82
2022/07/02 03:08:45;;;;;;;3.47;2.20;;;;;;;24.95;52.36;100849.97;5091288;28;20044;-82
2022/07/02 03:11:13;;;;;;;3.83;2.50;;;;;;;25.03;52.68;100860.09;5092661;28;20048;-82
2022/07/02 03:13:41;;;;;;;2.70;2.38;;;;;;;25.01;53.60;100856.06;5091462;28;20044;-82
2022/07/02 03:16:09;;;;;;;3.05;2.22;;;;;;;25.08;52.67;100864.59;5091748;28;20051;-82
2022/07/02 03:18:37;;;;;;;2.50;2.30;;;;;;;25.06;52.87;100858.56;5092633;28;20039;-82
2022/07/02 03:21:05;;;;;;;3.50;2.13;;;;;;;24.93;53.19;100855.16;5092682;28;20048;-82
2022/07/02 03:23:32;;;;;;;2.58;2.33;;;;;;;24.88;53.59;100870.25;5092516;28;20066;-82
2022/07/02 03:26:01;;;;;;;3.20;2.63;;;;;;;24.81;54.26;100867.31;5092500;28;20052;-82
2022/07/02 03:28:28;;;;;;;3.40;2.83;;;;;;;24.82;54.31;100874.53;5092428;28;20122;-82
2022/07/02 03:30:57;;;;;;;2.70;2.00;;;;;;;24.81;54.07;100878.50;5092491;28;20175;-82
2022/07/02 03:33:25;;;;;;;5.80;2.38;;;;;;;24.91;53.91;100874.28;5092154;28;20110;-82
2022/07/02 03:35:53;;;;;;;4.90;2.00;;;;;;;24.97;54.08;100875.59;5092415;28;20047;-82
2022/07/02 03:38:21;;;;;;;2.90;2.10;;;;;;;24.99;53.83;100880.81;5092145;28;20052;-82
2022/07/02 03:40:49;;;;;;;2.55;2.15;;;;;;;24.89;53.74;100882.25;5092076;28;20059;-82
2022/07/02 03:43:17;;;;;;;3.10;2.28;;;;;;;24.88;54.38;100878.63;5107771;28;20051;-82
2022/07/02 03:45:45;;;;;;;2.00;1.85;;;;;;;24.94;54.22;100874.34;5092276;28;20040;-82
2022/07/02 03:48:13;;;;;;;3.97;2.40;;;;;;;24.79;54.74;100886.44;5107702;28;20055;-82
2022/07/02 03:50:42;;;;;;;2.42;2.22;;;;;;;24.89;54.25;100905.47;5077605;28;20048;-82
2022/07/02 03:53:13;;;;;;;3.55;2.50;;;;;;;24.86;54.55;100899.78;5092074;28;20040;-82
2022/07/02 03:55:41;;;;;;;5.22;2.70;;;;;;;24.88;54.37;100903.03;5091501;28;20048;-82
2022/07/02 03:58:09;;;;;;;4.72;2.58;;;;;;;24.88;54.14;100901.03;5070561;28;20046;-82
2022/07/02 04:00:38;;;;;;;4.28;2.38;;;;;;;24.85;54.23;100904.56;5071252;28;20479;-82
2022/07/02 04:03:05;;;;;;;3.63;2.72;;;;;;;24.71;55.20;100905.06;5071088;28;20122;-82
2022/07/02 04:05:34;;;;;;;6.95;3.03;;;;;;;24.71;55.69;100907.88;5071413;28;20049;-82
2022/07/02 04:08:02;;;;;;;3.90;2.42;;;;;;;24.79;55.03;100911.63;5070035;28;20403;-82
2022/07/02 04:10:30;;;;;;;3.00;2.70;;;;;;;24.79;54.53;100909.63;5071591;28;20045;-82
2022/07/02 04:12:58;;;;;;;4.50;2.50;;;;;;;24.91;54.59;100908.69;5068727;28;20052;-82
2022/07/02 04:15:25;;;;;;;2.83;2.30;;;;;;;24.89;54.72;100915.84;5069075;28;20052;-82
2022/07/02 04:17:53;;;;;;;5.60;2.40;;;;;;;24.82;54.86;100910.91;5071284;28;20040;-82
2022/07/02 04:20:21;;;;;;;2.95;2.58;;;;;;;24.83;55.04;100906.94;5071188;28;20395;-82
2022/07/02 04:22:49;;;;;;;10.55;2.65;;;;;;;24.91;54.77;100914.28;5070260;28;20395;-82
2022/07/02 04:25:17;;;;;;;2.75;2.30;;;;;;;24.95;55.01;100917.16;5069924;28;20041;-82
2022/07/02 04:27:45;;;;;;;6.65;3.00;;;;;;;25.01;55.39;100926.03;5070037;28;20043;-82
2022/07/02 04:30:13;;;;;;;2.65;2.40;;;;;;;25.20;54.44;100928.81;5071108;28;20044;-82
2022/07/02 04:32:41;;;;;;;3.38;2.40;;;;;;;25.03;54.67;100915.31;5069796;28;20055;-82
2022/07/02 04:35:09;;;;;;;3.30;2.85;;;;;;;25.10;54.56;100921.03;5071117;28;20036;-82
2022/07/02 04:37:38;;;;;;;4.10;2.40;;;;;;;25.33;54.47;100937.03;5071209;28;20513;-82
2022/07/02 04:40:06;;;;;;;2.80;2.40;;;;;;;25.31;54.63;100931.00;5071028;28;20040;-82
2022/07/02 04:42:34;;;;;;;2.78;2.33;;;;;;;25.42;54.77;100933.97;5071367;28;20048;-82
2022/07/02 04:45:02;;;;;;;2.30;2.20;;;;;;;25.22;55.02;100925.66;5071103;28;20052;-82
2022/07/02 04:47:30;;;;;;;3.40;2.78;;;;;;;25.25;56.17;100927.69;5071217;28;20040;-82
2022/07/02 04:49:58;;;;;;;4.38;2.65;;;;;;;25.32;55.03;100932.63;5071107;28;20040;-82
2022/07/02 04:52:26;;;;;;;4.75;2.60;;;;;;;25.59;54.39;100938.28;5085228;28;20047;-82
2022/07/02 04:54:54;;;;;;;5.13;2.72;;;;;;;25.62;54.39;100943.16;5078008;28;20040;-82
2022/07/02 04:57:22;;;;;;;2.35;2.17;;;;;;;25.69;54.12;100943.25;5089897;28;20063;-82
2022/07/02 04:59:50;;;;;;;2.92;2.20;;;;;;;25.90;53.53;100944.78;5091129;28;20040;-82
2022/07/02 05:02:18;;;;;;;4.97;2.80;;;;;;;26.06;52.99;100952.22;5091269;28;20052;-82
2022/07/02 05:04:49;;;;;;;3.10;2.50;;;;;;;26.24;52.47;100958.91;5091141;28;20044;-82
2022/07/02 05:07:17;;;;;;;2.92;2.42;;;;;;;26.11;52.90;100954.69;5091307;28;20045;-82
2022/07/02 05:09:51;;;;;;;3.53;2.42;;;;;;;26.21;52.70;100947.63;5091114;28;20047;-82
2022/07/02 05:12:19;;;;;;;3.47;2.58;;;;;;;26.22;52.73;100964.09;5091203;28;20040;-82
2022/07/02 05:14:47;;;;;;;4.97;2.33;;;;;;;26.39;52.54;100959.94;5089807;28;20056;-82
2022/07/02 05:17:14;;;;;;;2.83;2.45;;;;;;;26.26;52.13;100952.94;5091125;28;20048;-82
2022/07/02 05:19:43;;;;;;;2.47;1.92;;;;;;;26.28;52.78;100967.38;5090818;28;20063;-81
2022/07/02 05:22:11;;;;;;;4.53;2.15;;;;;;;26.26;52.43;100964.97;5070994;28;20507;-81
2022/07/02 05:24:39;;;;;;;5.30;2.45;;;;;;;26.30;52.05;100957.41;5090941;28;20406;-82
2022/07/02 05:27:08;;;;;;;5.65;3.03;;;;;;;26.30;52.32;100957.41;5077638;28;20044;-81
2022/07/02 05:29:35;;;;;;;3.38;2.40;;;;;;;26.39;52.35;100970.34;5082102;28;20055;-82
2022/07/02 05:32:04;;;;;;;4.45;2.58;;;;;;;26.61;51.57;100973.41;5072180;28;20399;-82
2022/07/02 05:34:32;;;;;;;4.07;2.60;;;;;;;26.70;51.37;100979.56;5081619;28;20040;-82
2022/07/02 05:37:00;;;;;;;4.28;2.28;;;;;;;26.66;50.82;100967.47;5089703;28;20051;-82
2022/07/02 05:39:28;;;;;;;2.83;2.50;;;;;;;26.86;50.42;100970.94;5091552;28;20048;-82
2022/07/02 05:41:56;;;;;;;4.30;2.88;;;;;;;26.89;49.83;100974.97;5094537;28;20489;-82
2022/07/02 05:44:23;;;;;;;3.70;2.28;;;;;;;26.94;49.58;100985.88;5093539;28;20493;-81
2022/07/02 05:46:51;;;;;;;3.55;2.78;;;;;;;27.14;49.39;100992.13;5094371;28;20048;-81
2022/07/02 05:49:19;;;;;;;2.67;2.13;;;;;;;27.20;49.42;100987.78;5088817;28;20048;-82
2022/07/02 05:51:47;;;;;;;2.95;2.40;;;;;;;27.34;48.74;100989.94;5084724;28;20040;-82
2022/07/02 05:54:15;;;;;;;2.75;2.38;;;;;;;27.50;48.91;100997.28;5094317;28;20048;-82
2022/07/02 05:56:43;;;;;;;2.72;2.42;;;;;;;27.57;48.14;100994.53;5093277;28;20032;-81
2022/07/02 05:59:11;;;;;;;4.35;2.58;;;;;;;27.69;47.62;101010.34;5094065;28;20052;-82
2022/07/02 06:01:39;;;;;;;3.55;2.90;;;;;;;27.78;47.83;101001.56;5074721;28;20381;-82
2022/07/02 06:04:07;;;;;;;2.42;2.22;;;;;;;27.82;47.02;100996.81;5082275;28;20048;-82
2022/07/02 06:09:22;;;;;;;2.42;2.30;;;;;;;27.98;46.66;100995.69;5088915;28;20052;-81
2022/07/02 06:11:50;;;;;;;2.50;2.30;;;;;;;28.03;46.34;101013.03;5094070;28;20051;-82
2022/07/02 06:14:18;;;;;;;3.90;2.90;;;;;;;28.03;45.97;101001.78;5093944;28;20044;-82
2022/07/02 06:16:46;;;;;;;2.45;2.25;;;;;;;27.90;45.55;100992.84;5093862;28;20044;-82
2022/07/02 06:19:14;;;;;;;4.53;2.38;;;;;;;28.09;45.39;101012.66;5093594;28;20052;-82
2022/07/02 06:21:42;;;;;;;4.88;2.28;;;;;;;28.21;44.69;101000.28;5093826;28;20047;-82
2022/07/02 06:24:11;;;;;;;4.80;2.50;;;;;;;28.25;44.37;100996.31;5076809;28;20044;-82
2022/07/02 06:26:42;;;;;;;4.15;2.53;;;;;;;28.31;43.66;101010.81;5089430;28;20062;-83
2022/07/02 06:29:11;;;;;;;3.03;2.13;;;;;;;28.38;43.79;101013.66;5104366;28;20131;-83
2022/07/02 06:31:39;;;;;;;2.45;2.25;;;;;;;28.42;43.87;101008.88;5068977;28;20044;-83
2022/07/02 06:34:07;;;;;;;5.45;1.98;;;;;;;28.57;43.09;101011.75;5092281;28;20480;-83
2022/07/02 06:36:35;;;;;;;2.40;2.20;;;;;;;28.68;42.76;101014.63;5077632;28;20048;-83
2022/07/02 06:39:03;;;;;;;6.25;2.55;;;;;;;28.74;42.86;101003.78;5093388;28;20425;-83
2022/07/02 06:44:17;;;;;;;4.70;2.30;;;;;;;28.97;41.99;101026.84;5093458;28;20047;-83
2022/07/02 06:46:45;;;;;;;4.53;2.28;;;;;;;29.06;42.29;101020.84;5093297;28;20040;-83
2022/07/02 06:49:13;;;;;;;2.10;1.90;;;;;;;29.17;41.97;101020.84;5090030;28;20052;-83
2022/07/02 06:51:41;;;;;;;3.55;2.50;;;;;;;29.39;42.11;101032.19;5081447;28;20044;-82
2022/07/02 06:54:09;;;;;;;5.90;2.35;;;;;;;29.40;42.18;101016.88;5093051;28;20490;-83
2022/07/02 14:37:49;;;;;;;1.83;1.70;;;;;;;37.48;24.65;100960.56;5107229;27;20428;-79
2022/07/02 14:40:18;;;;;;;3.67;1.85;;;;;;;37.74;24.71;100957.69;5088942;28;20055;-79
2022/07/02 14:42:46;;;;;;;2.65;1.58;;;;;;;37.56;24.06;100968.88;5091011;28;20054;-80
2022/07/02 14:45:14;;;;;;;1.95;1.48;;;;;;;37.51;23.46;100953.94;5101359;28;20406;-80
2022/07/02 14:47:42;;;;;;;1.77;1.55;;;;;;;37.75;24.01;100950.72;5088277;28;20066;-80
2022/07/02 14:50:10;;;;;;;3.55;1.83;;;;;;;38.02;24.17;100943.59;5092996;28;20040;-79
2022/07/02 14:52:38;;;;;;;1.85;1.75;;;;;;;37.95;24.29;100949.59;5101341;28;20399;-79
2022/07/02 14:55:06;;;;;;;1.55;1.45;;;;;;;38.08;23.54;100948.75;5103270;28;20402;-80
2022/07/02 14:57:34;;;;;;;3.35;1.60;;;;;;;38.24;23.54;100951.41;5096572;28;20059;-80
2022/07/02 15:00:09;;;;;;;2.65;1.73;;;;;;;38.34;22.57;100952.28;5092865;28;20052;-79
2022/07/02 15:02:37;;;;;;;2.38;1.60;;;;;;;38.42;23.21;100947.09;5101208;28;20035;-80
2022/07/02 15:05:07;;;;;;;1.52;1.38;;;;;;;38.35;22.96;100936.72;5094836;28;20044;-79
2022/07/02 15:07:38;;;;;;;3.70;1.40;;;;;;;38.29;22.56;100939.38;5094005;28;20056;-80
2022/07/02 15:10:08;;;;;;;1.52;1.42;;;;;;;38.11;23.31;100930.69;5090042;28;20043;-80
2022/07/02 15:12:36;;;;;;;3.00;1.63;;;;;;;37.91;22.81;100931.78;5091611;28;20509;-80
2022/07/02 15:17:51;;;;;;;4.30;1.40;;;;;;;37.42;21.42;100915.97;5084745;28;20142;-80
2022/07/02 15:20:19;;;;;;;1.65;1.42;;;;;;;37.48;22.40;100923.47;5086208;28;20416;-80
2022/07/02 15:22:49;;;;;;;1.20;1.10;;;;;;;37.71;23.64;100920.66;5087016;28;20048;-80
2022/07/02 15:25:21;;;;;;;2.05;1.70;;;;;;;37.62;22.09;100918.56;5086366;28;20405;-80
2022/07/02 15:27:51;;;;;;;2.03;1.30;;;;;;;37.39;21.95;100917.69;5087811;28;20048;-80
2022/07/02 15:30:31;;;;;;;2.80;1.60;;;;;;;37.35;23.26;100917.00;5087506;28;20041;-80
2022/07/02 15:33:00;;;;;;;2.35;1.60;;;;;;;37.18;23.34;100914.28;5087349;28;20064;-77
2022/07/02 15:35:28;;;;;;;1.35;1.25;;;;;;;36.87;23.47;100923.44;5087110;28;20040;-77
2022/07/02 15:37:57;;;;;;;1.48;1.30;;;;;;;36.62;23.25;100913.63;5086548;28;20052;-77
2022/07/02 15:40:27;;;;;;;2.42;1.33;;;;;;;36.47;23.23;100909.59;5085789;28;20036;-77
2022/07/02 15:42:56;;;;;;;3.50;1.55;;;;;;;36.54;24.31;100913.03;5087319;28;20040;-79
2022/07/02 15:45:25;;;;;;;1.33;1.23;;;;;;;36.37;23.88;100908.66;5086805;28;20044;-80
2022/07/02 15:47:53;;;;;;;2.78;1.63;;;;;;;36.09;23.96;100911.06;5081195;28;20044;-80
2022/07/02 15:50:21;;;;;;;1.70;1.60;;;;;;;35.97;22.80;100921.19;5073835;28;20048;-79
2022/07/02 15:53:01;;;;;;;1.70;1.60;;;;;;;35.71;25.61;100915.41;5092673;28;20044;-79
2022/07/02 15:55:36;;;;;;;2.35;1.77;;;;;;;35.54;24.93;100908.91;5080047;28;20044;-80
2022/07/02 15:58:11;;;;;;;2.30;1.85;;;;;;;35.64;24.14;100913.53;5079523;28;20048;-80
2022/07/02 16:00:40;;;;;;;1.73;1.63;;;;;;;35.58;25.62;100910.41;5075936;28;20055;-79
2022/07/02 16:03:11;;;;;;;3.20;1.58;;;;;;;35.45;25.20;100906.69;5083514;28;20040;-80
2022/07/02 16:05:41;;;;;;;1.92;1.52;;;;;;;35.50;24.72;100909.81;5081833;28;20384;-79
2022/07/02 16:08:11;;;;;;;2.75;1.90;;;;;;;35.34;23.59;100907.75;5092492;28;20059;-79
2022/07/02 16:10:40;;;;;;;2.40;1.23;;;;;;;35.24;24.81;100903.16;5089413;28;20395;-79
2022/07/02 16:13:08;;;;;;;2.88;1.75;;;;;;;35.26;25.42;100903.50;5080870;28;20036;-80
2022/07/02 16:15:38;;;;;;;2.55;1.20;;;;;;;35.03;23.50;100910.94;5071085;28;20052;-80
2022/07/02 16:18:09;;;;;;;1.27;1.10;;;;;;;34.83;23.35;100911.81;5072777;28;20131;-80
2022/07/02 16:20:38;;;;;;;1.30;1.20;;;;;;;34.81;24.39;100897.25;5072936;28;20045;-80
2022/07/02 16:23:07;;;;;;;2.42;1.50;;;;;;;34.84;25.18;100906.94;5073403;28;20048;-79
2022/07/02 16:25:35;;;;;;;2.40;1.65;;;;;;;34.77;25.74;100890.84;5072874;28;20059;-80
2022/07/02 16:28:03;;;;;;;2.50;1.50;;;;;;;34.72;26.09;100899.91;5071382;28;20052;-80
2022/07/02 16:30:33;;;;;;;1.50;1.40;;;;;;;34.66;26.69;100887.47;5072948;28;20043;-80
2022/07/02 16:33:30;;;;;;;3.38;1.60;;;;;;;34.46;25.93;100879.78;5073016;28;20045;-80
2022/07/02 16:36:02;;;;;;;2.83;1.60;;;;;;;34.44;27.42;100885.06;5069063;28;20037;-80
2022/07/02 16:38:36;;;;;;;1.95;1.60;;;;;;;34.38;27.94;100898.19;5071932;28;21256;-79
2022/07/02 16:41:07;;;;;;;1.88;1.77;;;;;;;34.42;26.93;100894.06;5085010;28;20422;-80
2022/07/02 16:43:37;;;;;;;3.25;1.63;;;;;;;34.41;26.84;100881.06;5083547;28;20499;-80
2022/07/02 16:46:09;;;;;;;2.50;1.42;;;;;;;34.50;26.96;100894.69;5069691;28;20051;-79
2022/07/02 16:48:43;;;;;;;3.20;1.75;;;;;;;34.34;25.60;100891.81;5069563;28;20499;-79
2022/07/02 16:51:12;;;;;;;1.77;1.67;;;;;;;34.21;26.29;100883.16;5086108;28;20048;-80
2022/07/02 16:53:40;;;;;;;4.63;1.98;;;;;;;34.40;26.76;100890.84;5083981;28;20048;-80
2022/07/02 16:56:09;;;;;;;1.67;1.58;;;;;;;34.36;28.16;100889.31;5073957;28;20384;-80
2022/07/02 16:58:44;;;;;;;1.50;1.40;;;;;;;34.24;27.20;100876.59;5071384;28;20044;-79
2022/07/02 17:01:12;;;;;;;4.65;1.85;;;;;;;34.26;27.63;100874.91;5083593;28;20040;-79
2022/07/02 17:03:44;;;;;;;1.90;1.80;;;;;;;34.25;27.64;100872.53;5086343;28;20505;-80
2022/07/02 17:06:13;;;;;;;2.47;1.88;;;;;;;34.30;27.35;100869.16;5074071;28;20052;-79
2022/07/02 17:08:41;;;;;;;1.73;1.63;;;;;;;34.19;27.08;100860.88;5070218;28;20048;-80
2022/07/02 17:11:33;;;;;;;2.50;1.70;;;;;;;34.16;26.89;100853.25;5073426;28;20057;-80
2022/07/02 17:14:02;;;;;;;3.25;1.50;;;;;;;34.17;27.63;100854.84;5063300;28;20537;-80
2022/07/02 17:16:33;;;;;;;2.20;2.00;;;;;;;34.22;26.50;100862.84;5071897;28;20045;-79
2022/07/02 17:19:02;;;;;;;3.67;1.63;;;;;;;34.12;27.11;100846.84;5070897;28;20056;-79
2022/07/02 17:21:31;;;;;;;2.72;1.73;;;;;;;34.01;27.99;100850.66;5079139;28;20044;-81
2022/07/02 17:24:00;;;;;;;2.85;1.77;;;;;;;33.77;25.86;100850.72;5079310;28;20051;-83
2022/07/02 17:26:30;;;;;;;3.58;1.50;;;;;;;33.41;28.25;100847.78;5083206;28;20471;-82
2022/07/02 17:29:05;;;;;;;1.90;1.80;;;;;;;33.29;27.48;100852.84;5083446;28;20051;-82
2022/07/02 17:31:33;;;;;;;1.75;1.65;;;;;;;33.28;27.67;100856.88;5077814;28;20153;-85
2022/07/02 17:34:02;;;;;;;2.00;1.50;;;;;;;33.24;27.55;100853.31;5082990;28;20052;-83
2022/07/02 17:36:29;;;;;;;1.77;1.67;;;;;;;33.11;27.63;100842.59;5080052;28;20032;-86
2022/07/02 17:38:57;;;;;;;1.80;1.42;;;;;;;33.11;26.87;100842.59;5070822;28;20056;-86
2022/07/02 17:41:26;;;;;;;1.52;1.42;;;;;;;33.21;27.48;100849.31;5070221;28;20048;-81
2022/07/02 17:43:54;;;;;;;2.13;1.42;;;;;;;33.18;27.32;100844.50;5069263;28;20056;-81
2022/07/02 17:46:22;;;;;;;2.78;1.60;;;;;;;33.19;27.90;100853.81;5069870;28;20047;-81
2022/07/02 17:48:50;;;;;;;3.25;1.52;;;;;;;33.08;28.86;100851.97;5080159;28;20523;-81
2022/07/02 17:51:18;;;;;;;2.75;1.52;;;;;;;33.12;27.34;100846.22;5063270;28;20707;-81
2022/07/02 17:53:47;;;;;;;3.08;1.50;;;;;;;33.05;27.93;100847.16;5092061;28;20040;-81
2022/07/02 17:56:15;;;;;;;3.17;1.80;;;;;;;33.01;28.10;100846.41;5076522;28;20040;-81
2022/07/02 17:58:43;;;;;;;1.80;1.67;;;;;;;32.92;29.02;100843.28;5089939;28;20055;-81
2022/07/02 18:01:11;;;;;;;4.95;1.70;;;;;;;32.97;27.96;100846.47;5107013;28;20047;-81
2022/07/02 18:03:39;;;;;;;4.78;1.73;;;;;;;33.02;29.00;100852.91;5091259;28;20395;-80
2022/07/02 18:06:07;;;;;;;4.82;2.10;;;;;;;32.97;28.10;100854.16;5090851;28;20475;-81
2022/07/02 18:08:35;;;;;;;2.35;1.90;;;;;;;32.90;28.65;100845.75;5091609;28;20044;-81
2022/07/02 18:11:04;;;;;;;2.53;1.50;;;;;;;32.94;28.94;100847.28;5092003;28;20051;-82
2022/07/02 18:13:32;;;;;;;3.05;1.77;;;;;;;32.95;29.12;100850.94;5091413;28;20051;-81
2022/07/02 18:16:00;;;;;;;3.22;2.20;;;;;;;32.88;28.99;100840.50;5107442;28;20043;-81
2022/07/02 18:18:28;;;;;;;3.40;1.83;;;;;;;32.81;30.45;100849.13;5091304;28;20047;-81
2022/07/02 18:20:56;;;;;;;1.52;1.42;;;;;;;32.67;30.41;100833.16;5091603;28;20052;-81
2022/07/02 18:23:25;;;;;;;4.38;2.33;;;;;;;32.69;30.37;100842.84;5090611;28;20055;-81
2022/07/02 18:25:53;;;;;;;2.40;1.83;;;;;;;32.54;31.21;100832.97;5103665;28;20052;-81
2022/07/02 18:28:21;;;;;;;2.13;1.50;;;;;;;32.54;31.40;100836.59;5073616;28;20049;-81
2022/07/02 18:30:49;;;;;;;2.38;1.77;;;;;;;32.61;30.15;100852.69;5070936;28;20040;-81
2022/07/02 18:33:17;;;;;;;4.68;1.80;;;;;;;32.57;30.22;100841.41;5070377;28;20045;-81
2022/07/02 18:35:45;;;;;;;2.30;2.10;;;;;;;32.50;30.97;100838.66;5069603;28;20406;-81
2022/07/02 18:38:16;;;;;;;5.43;1.75;;;;;;;32.52;31.50;100843.91;5069604;28;20043;-81
2022/07/02 18:40:44;;;;;;;4.97;1.80;;;;;;;32.42;31.99;100835.16;5070883;28;20045;-81
2022/07/02 18:43:14;;;;;;;6.53;2.42;;;;;;;32.45;32.51;100839.16;5069675;28;20045;-82
2022/07/02 18:45:45;;;;;;;1.73;1.63;;;;;;;32.46;32.36;100835.09;5069602;28;20040;-81
2022/07/02 18:48:14;;;;;;;2.00;1.80;;;;;;;32.33;31.29;100832.00;5071167;28;20056;-81
2022/07/02 18:50:42;;;;;;;4.57;2.05;;;;;;;32.33;32.52;100837.66;5070494;28;20044;-81
2022/07/02 18:53:10;;;;;;;2.17;1.98;;;;;;;32.22;33.17;100832.16;5090857;28;20047;-81
2022/07/02 18:55:38;;;;;;;3.60;1.80;;;;;;;32.15;33.46;100838.72;5075623;28;20075;-81
2022/07/02 18:58:06;;;;;;;5.72;2.83;;;;;;;32.12;33.50;100833.91;5062888;28;20048;-82
2022/07/02 19:00:34;;;;;;;3.20;2.08;;;;;;;32.07;32.16;100830.72;5091145;28;20390;-82
2022/07/02 19:03:06;;;;;;;4.53;2.05;;;;;;;32.01;32.67;100838.91;5090563;28;20051;-81
2022/07/02 19:05:35;;;;;;;4.85;2.40;;;;;;;31.92;33.35;100830.94;5074042;28;20041;-81
2022/07/02 19:08:03;;;;;;;4.15;2.10;;;;;;;31.85;33.88;100831.00;5073902;28;20052;-81
2022/07/02 19:10:31;;;;;;;2.50;2.10;;;;;;;31.81;33.79;100830.22;5074669;28;20376;-82
2022/07/02 19:12:59;;;;;;;3.50;2.63;;;;;;;31.81;33.13;100836.66;5068918;28;20044;-82
2022/07/02 19:15:29;;;;;;;4.32;2.40;;;;;;;31.75;34.44;100835.53;5081925;28;20044;-83
2022/07/02 19:17:58;;;;;;;7.00;2.55;;;;;;;31.67;35.25;100836.84;5083325;28;20418;-81
2022/07/02 19:20:30;;;;;;;5.55;2.88;;;;;;;31.68;34.24;100849.75;5089348;28;20412;-81
2022/07/02 19:22:59;;;;;;;6.07;2.70;;;;;;;31.64;35.19;100846.97;5082563;28;20478;-83
2022/07/02 19:25:27;;;;;;;4.00;2.20;;;;;;;31.61;35.32;100844.97;5085514;28;20051;-82